Time;durP1;ratioP1;P1;durP2;ratioP2;P2;SDS_P1;SDS_P2;PMS_P1;PMS_P2;Temp;Humidity;BMP_temperature;BMP_pressure;BME280_temperature;BME280_humidity;BME280_pressure;Samples;Min_cycle;Max_cycle;Signal;HPM_P1;HPM_P2
2023/12/17 00:01:25;;;;;;;28.80;17.73;;;;;;;;;;5075017;28;20507;-82
2023/12/17 00:03:54;;;;;;;28.60;17.27;;;;;;;;;;5074441;28;20546;-82
2023/12/17 00:06:21;;;;;;;23.77;16.67;;;;;;;;;;5074844;28;20566;-83
2023/12/17 00:08:48;;;;;;;22.67;14.57;;;;;;;;;;5074461;28;20558;-83
2023/12/17 00:11:15;;;;;;;25.77;17.30;;;;;;;;;;5075039;28;20438;-82
2023/12/17 00:13:41;;;;;;;24.47;15.63;;;;;;;;;;5073417;28;20459;-82
2023/12/17 00:16:08;;;;;;;21.10;14.90;;;;;;;;;;5075135;28;20435;-82
2023/12/17 00:18:36;;;;;;;20.20;14.60;;;;;;;;;;5072994;28;20545;-82
2023/12/17 00:21:03;;;;;;;22.83;13.33;;;;;;;;;;5074524;28;20477;-82
2023/12/17 00:23:31;;;;;;;22.63;14.07;;;;;;;;;;5074113;28;20523;-82
2023/12/17 00:25:57;;;;;;;22.10;14.10;;;;;;;;;;5074710;28;20576;-82
2023/12/17 00:28:25;;;;;;;21.63;14.43;;;;;;;;;;5074159;28;20827;-82
2023/12/17 00:30:51;;;;;;;22.17;13.53;;;;;;;;;;5073684;28;20543;-82
2023/12/17 00:33:18;;;;;;;23.90;14.03;;;;;;;;;;5074205;28;20477;-82
2023/12/17 00:35:44;;;;;;;19.50;12.57;;;;;;;;;;5074342;28;20469;-83
2023/12/17 00:38:11;;;;;;;17.53;13.33;;;;;;;;;;5072916;28;20462;-82
2023/12/17 00:40:40;;;;;;;17.93;13.50;;;;;;;;;;5072627;28;20439;-82
2023/12/17 00:43:06;;;;;;;21.83;14.53;;;;;;;;;;5073989;28;20983;-82
2023/12/17 00:45:34;;;;;;;24.10;14.50;;;;;;;;;;5074213;28;20494;-82
2023/12/17 00:48:00;;;;;;;19.90;14.80;;;;;;;;;;5073489;28;20558;-82
2023/12/17 00:50:27;;;;;;;22.57;14.37;;;;;;;;;;5074264;28;20441;-82
2023/12/17 00:52:53;;;;;;;22.73;15.97;;;;;;;;;;5073794;28;20541;-82
2023/12/17 00:55:19;;;;;;;22.53;15.13;;;;;;;;;;5074224;28;20459;-82
2023/12/17 00:57:47;;;;;;;18.33;13.40;;;;;;;;;;5073055;28;20462;-82
2023/12/17 01:00:14;;;;;;;17.60;13.70;;;;;;;;;;5074166;28;20443;-82
2023/12/17 01:02:41;;;;;;;21.93;13.60;;;;;;;;;;5073344;28;20467;-83
2023/12/17 01:05:08;;;;;;;25.30;12.60;;;;;;;;;;5073805;28;20512;-82
2023/12/17 01:07:35;;;;;;;16.03;13.10;;;;;;;;;;5073504;28;20458;-81
2023/12/17 01:10:02;;;;;;;16.27;11.70;;;;;;;;;;5073947;28;20474;-81
2023/12/17 01:12:28;;;;;;;17.63;11.87;;;;;;;;;;5073055;28;20446;-82
2023/12/17 01:14:56;;;;;;;14.80;10.63;;;;;;;;;;5073319;28;20961;-82
2023/12/17 01:17:24;;;;;;;17.07;11.00;;;;;;;;;;5073195;28;20441;-81
2023/12/17 01:19:51;;;;;;;15.37;11.90;;;;;;;;;;5073735;28;20441;-82
2023/12/17 01:22:17;;;;;;;13.80;9.90;;;;;;;;;;5071612;28;20443;-83
2023/12/17 01:24:44;;;;;;;15.50;11.20;;;;;;;;;;5073370;28;20809;-82
2023/12/17 01:27:11;;;;;;;10.73;9.30;;;;;;;;;;5073544;28;20481;-82
2023/12/17 01:29:37;;;;;;;16.33;10.20;;;;;;;;;;5050297;28;20954;-82
2023/12/17 01:32:06;;;;;;;11.90;10.17;;;;;;;;;;5053710;28;20471;-82
2023/12/17 01:34:32;;;;;;;11.63;9.03;;;;;;;;;;5053518;28;20476;-82
2023/12/17 01:36:59;;;;;;;11.27;8.87;;;;;;;;;;5053397;28;20440;-82
2023/12/17 01:39:25;;;;;;;12.23;9.00;;;;;;;;;;5052898;28;20472;-82
2023/12/17 01:41:52;;;;;;;13.40;10.03;;;;;;;;;;5053497;28;20436;-81
2023/12/17 01:44:19;;;;;;;13.80;9.93;;;;;;;;;;5053113;28;20543;-82
2023/12/17 01:46:46;;;;;;;11.90;10.07;;;;;;;;;;5052829;28;20476;-82
2023/12/17 01:49:14;;;;;;;17.17;9.50;;;;;;;;;;5052963;28;20544;-82
2023/12/17 01:51:42;;;;;;;13.30;10.80;;;;;;;;;;5053871;28;20436;-80
2023/12/17 01:54:10;;;;;;;13.83;10.23;;;;;;;;;;5056933;28;20482;-81
2023/12/17 01:56:37;;;;;;;17.80;11.23;;;;;;;;;;5057158;28;20418;-83
2023/12/17 01:59:04;;;;;;;15.40;10.00;;;;;;;;;;5056182;28;20478;-81
2023/12/17 02:01:32;;;;;;;17.23;11.10;;;;;;;;;;5055813;28;20447;-82
2023/12/17 02:03:59;;;;;;;13.20;10.30;;;;;;;;;;5056827;28;20479;-80
2023/12/17 02:06:27;;;;;;;16.70;11.57;;;;;;;;;;5057387;28;20486;-80
2023/12/17 02:08:53;;;;;;;12.43;10.20;;;;;;;;;;5056856;28;20469;-81
2023/12/17 02:11:19;;;;;;;15.53;11.20;;;;;;;;;;5057369;28;20451;-80
2023/12/17 02:13:46;;;;;;;15.63;10.03;;;;;;;;;;5055836;28;20463;-82
2023/12/17 02:16:14;;;;;;;14.30;11.40;;;;;;;;;;5057543;28;20448;-81
2023/12/17 02:18:42;;;;;;;12.70;9.57;;;;;;;;;;5056869;28;20482;-82
2023/12/17 02:21:08;;;;;;;14.30;9.77;;;;;;;;;;5058213;28;20916;-83
2023/12/17 02:23:37;;;;;;;11.40;9.63;;;;;;;;;;5057276;28;20555;-83
2023/12/17 02:26:04;;;;;;;11.80;9.60;;;;;;;;;;5057499;28;20505;-83
2023/12/17 02:28:31;;;;;;;13.10;9.70;;;;;;;;;;5055373;28;20980;-81
2023/12/17 02:30:57;;;;;;;11.20;9.50;;;;;;;;;;5057718;28;20444;-82
2023/12/17 02:33:24;;;;;;;13.40;9.60;;;;;;;;;;5056388;28;20474;-83
2023/12/17 02:35:50;;;;;;;14.50;10.03;;;;;;;;;;5056619;28;20551;-81
2023/12/17 02:38:17;;;;;;;11.50;9.30;;;;;;;;;;5056627;28;21056;-82
2023/12/17 02:40:45;;;;;;;13.20;8.80;;;;;;;;;;5057139;28;20441;-80
2023/12/17 02:43:11;;;;;;;8.67;7.70;;;;;;;;;;5056797;28;20554;-81
2023/12/17 02:45:38;;;;;;;14.23;9.77;;;;;;;;;;5056598;28;20474;-83
2023/12/17 02:48:05;;;;;;;12.60;10.70;;;;;;;;;;5056838;28;20838;-82
2023/12/17 02:50:31;;;;;;;14.37;9.50;;;;;;;;;;5057175;28;20527;-81
2023/12/17 02:52:58;;;;;;;12.53;10.10;;;;;;;;;;5055944;28;20467;-82
2023/12/17 02:55:25;;;;;;;15.67;10.90;;;;;;;;;;5054772;28;20543;-81
2023/12/17 02:57:53;;;;;;;13.97;10.40;;;;;;;;;;5055917;28;20472;-81
2023/12/17 03:00:19;;;;;;;16.13;10.20;;;;;;;;;;5056223;28;20423;-81
2023/12/17 03:02:46;;;;;;;14.33;9.60;;;;;;;;;;5054367;28;20478;-81
2023/12/17 03:05:12;;;;;;;16.93;9.53;;;;;;;;;;5056091;28;20546;-81
2023/12/17 03:07:40;;;;;;;13.10;8.63;;;;;;;;;;5055875;28;20479;-80
2023/12/17 03:10:06;;;;;;;13.47;9.00;;;;;;;;;;5056041;28;20527;-82
2023/12/17 03:12:33;;;;;;;12.57;9.80;;;;;;;;;;5055695;28;20438;-81
2023/12/17 03:15:01;;;;;;;11.93;8.57;;;;;;;;;;5056002;28;20511;-81
2023/12/17 03:17:27;;;;;;;12.00;7.90;;;;;;;;;;5055360;28;20436;-81
2023/12/17 03:19:53;;;;;;;12.97;8.33;;;;;;;;;;5056221;28;20436;-80
2023/12/17 03:22:20;;;;;;;9.90;7.60;;;;;;;;;;5055014;28;20446;-80
2023/12/17 03:24:51;;;;;;;12.73;9.00;;;;;;;;;;5055758;28;20471;-81
2023/12/17 03:27:17;;;;;;;12.50;9.23;;;;;;;;;;5055069;28;20460;-81
2023/12/17 03:29:44;;;;;;;11.70;9.00;;;;;;;;;;5055708;28;20436;-80
2023/12/17 03:32:14;;;;;;;10.37;7.70;;;;;;;;;;5055432;28;20925;-81
2023/12/17 03:34:41;;;;;;;9.27;7.73;;;;;;;;;;5075205;28;20447;-81
2023/12/17 03:37:07;;;;;;;12.33;8.60;;;;;;;;;;5074092;28;20435;-81
2023/12/17 03:39:34;;;;;;;11.23;8.67;;;;;;;;;;5075669;28;20562;-81
2023/12/17 03:42:00;;;;;;;13.77;9.63;;;;;;;;;;5075335;28;20525;-80
2023/12/17 03:44:26;;;;;;;11.93;8.20;;;;;;;;;;5074602;28;20481;-81
2023/12/17 03:46:53;;;;;;;9.63;7.67;;;;;;;;;;5075279;28;20479;-80
2023/12/17 03:49:21;;;;;;;8.57;7.37;;;;;;;;;;5075056;28;20467;-81
2023/12/17 03:51:47;;;;;;;9.30;7.20;;;;;;;;;;5074765;28;20940;-80
2023/12/17 03:54:14;;;;;;;11.97;8.90;;;;;;;;;;5074669;28;20467;-81
2023/12/17 03:56:45;;;;;;;10.17;7.90;;;;;;;;;;5074816;28;20450;-81
2023/12/17 03:59:12;;;;;;;11.10;7.70;;;;;;;;;;5074852;28;20471;-82
2023/12/17 04:01:44;;;;;;;10.17;8.00;;;;;;;;;;5074791;28;20435;-83
2023/12/17 04:04:12;;;;;;;10.57;7.40;;;;;;;;;;5074292;28;20467;-82
2023/12/17 04:06:40;;;;;;;8.60;7.70;;;;;;;;;;5073593;28;20459;-82
2023/12/17 04:09:06;;;;;;;12.17;8.50;;;;;;;;;;5074038;28;20488;-81
2023/12/17 04:11:33;;;;;;;15.67;8.40;;;;;;;;;;5074463;28;20813;-82
2023/12/17 04:13:59;;;;;;;12.40;9.00;;;;;;;;;;5072879;28;20467;-83
2023/12/17 04:16:26;;;;;;;10.63;7.93;;;;;;;;;;5073964;28;20439;-83
2023/12/17 04:18:52;;;;;;;10.57;7.63;;;;;;;;;;5074447;28;20466;-82
2023/12/17 04:21:19;;;;;;;11.77;8.90;;;;;;;;;;5074254;28;20443;-81
2023/12/17 04:23:48;;;;;;;11.60;8.40;;;;;;;;;;5074125;28;20466;-82
2023/12/17 04:26:15;;;;;;;9.73;8.73;;;;;;;;;;5074711;28;20489;-81
2023/12/17 04:28:41;;;;;;;10.10;8.20;;;;;;;;;;5074176;28;20572;-81
2023/12/17 04:31:09;;;;;;;18.43;9.47;;;;;;;;;;5074593;28;20815;-80
2023/12/17 04:33:38;;;;;;;13.60;9.53;;;;;;;;;;5073711;28;20469;-80
2023/12/17 04:36:05;;;;;;;10.00;8.60;;;;;;;;;;5074247;28;20438;-80
2023/12/17 04:38:33;;;;;;;10.60;9.10;;;;;;;;;;5072622;28;20471;-80
2023/12/17 04:41:01;;;;;;;18.23;8.90;;;;;;;;;;5073982;28;20958;-80
2023/12/17 04:43:28;;;;;;;13.07;8.93;;;;;;;;;;5073967;28;20550;-81
2023/12/17 04:45:55;;;;;;;13.17;9.40;;;;;;;;;;5073798;28;20467;-79
2023/12/17 04:48:22;;;;;;;14.23;8.60;;;;;;;;;;5073801;28;20475;-81
2023/12/17 04:50:48;;;;;;;14.40;9.70;;;;;;;;;;5074616;28;20435;-83
2023/12/17 04:53:15;;;;;;;12.23;10.40;;;;;;;;;;5073810;28;21011;-83
2023/12/17 04:55:42;;;;;;;15.13;9.93;;;;;;;;;;5074997;28;20457;-81
2023/12/17 04:58:11;;;;;;;20.07;11.10;;;;;;;;;;5073437;28;20479;-82
2023/12/17 05:00:37;;;;;;;18.80;9.93;;;;;;;;;;5074338;28;20409;-80
2023/12/17 05:03:04;;;;;;;16.33;10.73;;;;;;;;;;5074222;28;20477;-83
2023/12/17 05:05:31;;;;;;;18.20;10.73;;;;;;;;;;5056198;28;20846;-82
2023/12/17 05:07:57;;;;;;;11.80;10.07;;;;;;;;;;5074324;28;20549;-82
2023/12/17 05:10:24;;;;;;;13.03;10.07;;;;;;;;;;5073884;28;20521;-82
2023/12/17 05:12:53;;;;;;;17.13;9.40;;;;;;;;;;5072942;28;20471;-82
2023/12/17 05:15:21;;;;;;;12.83;10.30;;;;;;;;;;5073382;28;20976;-82
2023/12/17 05:17:49;;;;;;;13.50;10.60;;;;;;;;;;5073460;28;20835;-82
2023/12/17 05:20:16;;;;;;;15.70;11.20;;;;;;;;;;5073693;28;20814;-83
2023/12/17 05:22:42;;;;;;;13.13;11.07;;;;;;;;;;5072842;28;20469;-82
2023/12/17 05:25:09;;;;;;;17.63;11.83;;;;;;;;;;5073834;28;20455;-82
2023/12/17 05:27:37;;;;;;;13.20;10.83;;;;;;;;;;5072533;28;20529;-81
2023/12/17 05:30:04;;;;;;;15.57;11.37;;;;;;;;;;5073761;28;20786;-82
2023/12/17 05:32:32;;;;;;;14.50;12.27;;;;;;;;;;5073669;28;20424;-81
2023/12/17 05:34:58;;;;;;;22.27;12.53;;;;;;;;;;5073558;28;20433;-82
2023/12/17 05:37:25;;;;;;;14.30;11.30;;;;;;;;;;5073331;28;20435;-83
2023/12/17 05:39:51;;;;;;;15.67;11.43;;;;;;;;;;5073409;28;20442;-82
2023/12/17 05:42:17;;;;;;;21.20;11.50;;;;;;;;;;5073114;28;20447;-82
2023/12/17 05:44:44;;;;;;;16.63;12.07;;;;;;;;;;5073301;28;20429;-83
2023/12/17 05:47:11;;;;;;;18.33;11.07;;;;;;;;;;5073298;28;21049;-80
2023/12/17 05:49:40;;;;;;;13.00;11.57;;;;;;;;;;5073503;28;20451;-80
2023/12/17 05:52:07;;;;;;;17.40;12.10;;;;;;;;;;5073723;28;20441;-81
2023/12/17 05:54:33;;;;;;;16.50;11.80;;;;;;;;;;5073010;28;20529;-80
2023/12/17 05:57:00;;;;;;;14.90;11.80;;;;;;;;;;5071865;28;20493;-80
2023/12/17 05:59:29;;;;;;;16.60;12.90;;;;;;;;;;5073072;28;20837;-80
2023/12/17 06:01:55;;;;;;;17.50;11.53;;;;;;;;;;5073328;28;20836;-80
2023/12/17 06:04:21;;;;;;;14.77;11.20;;;;;;;;;;5073062;28;20477;-80
2023/12/17 06:06:49;;;;;;;18.83;11.30;;;;;;;;;;5073411;28;20504;-80
2023/12/17 06:09:17;;;;;;;12.17;10.03;;;;;;;;;;5072967;28;20905;-80
2023/12/17 06:11:45;;;;;;;14.33;11.10;;;;;;;;;;5071752;28;20529;-82
2023/12/17 06:14:12;;;;;;;13.50;10.33;;;;;;;;;;5072913;28;21067;-80
2023/12/17 06:16:40;;;;;;;17.87;12.33;;;;;;;;;;5073291;28;20450;-82
2023/12/17 06:19:07;;;;;;;13.37;9.97;;;;;;;;;;5072560;28;20475;-82
2023/12/17 06:21:34;;;;;;;16.13;11.57;;;;;;;;;;5073114;28;20449;-82
2023/12/17 06:24:03;;;;;;;15.23;10.27;;;;;;;;;;5072440;28;20475;-82
2023/12/17 06:26:30;;;;;;;17.37;11.07;;;;;;;;;;5073368;28;20446;-83
2023/12/17 06:28:57;;;;;;;12.57;9.40;;;;;;;;;;5072669;28;20475;-82
2023/12/17 06:31:23;;;;;;;13.60;10.70;;;;;;;;;;5071718;28;20828;-83
2023/12/17 06:33:53;;;;;;;12.50;9.67;;;;;;;;;;5072688;28;20446;-82
2023/12/17 06:36:19;;;;;;;16.80;10.00;;;;;;;;;;5073318;28;20431;-82
2023/12/17 06:38:48;;;;;;;12.27;9.77;;;;;;;;;;5075265;28;20553;-82
2023/12/17 06:41:16;;;;;;;12.83;11.53;;;;;;;;;;5077236;28;20417;-82
2023/12/17 06:43:42;;;;;;;15.40;9.93;;;;;;;;;;5076543;28;20477;-83
2023/12/17 06:46:09;;;;;;;17.53;9.87;;;;;;;;;;5075530;28;20431;-83
2023/12/17 06:48:35;;;;;;;13.37;9.77;;;;;;;;;;5076086;28;20996;-80
2023/12/17 06:51:02;;;;;;;11.20;10.10;;;;;;;;;;5076220;28;20431;-80
2023/12/17 06:53:29;;;;;;;16.80;10.00;;;;;;;;;;5075334;28;20471;-83
2023/12/17 06:55:55;;;;;;;17.00;10.97;;;;;;;;;;5076620;28;20455;-83
2023/12/17 06:58:23;;;;;;;15.30;11.00;;;;;;;;;;5074824;28;20467;-81
2023/12/17 07:00:50;;;;;;;13.53;10.30;;;;;;;;;;5076836;28;20441;-82
2023/12/17 07:03:18;;;;;;;12.23;9.50;;;;;;;;;;5075976;28;20831;-82
2023/12/17 07:05:44;;;;;;;12.83;9.10;;;;;;;;;;5076323;28;20458;-82
2023/12/17 07:08:11;;;;;;;20.63;9.63;;;;;;;;;;5075747;28;20467;-80
2023/12/17 07:10:39;;;;;;;11.13;8.97;;;;;;;;;;5075017;28;20443;-82
2023/12/17 07:13:07;;;;;;;15.53;9.90;;;;;;;;;;5075633;28;20900;-81
2023/12/17 07:15:35;;;;;;;12.67;10.27;;;;;;;;;;5076053;28;20461;-81
2023/12/17 07:18:01;;;;;;;14.50;9.67;;;;;;;;;;5074397;28;20521;-81
2023/12/17 07:20:28;;;;;;;14.03;10.60;;;;;;;;;;5076357;28;20522;-81
2023/12/17 07:22:54;;;;;;;20.37;11.07;;;;;;;;;;5076382;28;20483;-82
2023/12/17 07:25:24;;;;;;;12.90;11.00;;;;;;;;;;5075884;28;20455;-81
2023/12/17 07:27:50;;;;;;;15.13;10.60;;;;;;;;;;5076543;28;20884;-80
2023/12/17 07:30:17;;;;;;;14.00;10.40;;;;;;;;;;5076544;28;20441;-80
2023/12/17 07:32:46;;;;;;;12.80;10.63;;;;;;;;;;5076004;28;20462;-81
2023/12/17 07:35:14;;;;;;;21.63;12.43;;;;;;;;;;5075827;28;20459;-80
2023/12/17 07:37:41;;;;;;;17.90;11.40;;;;;;;;;;5075583;28;20463;-80
2023/12/17 07:40:08;;;;;;;15.90;11.80;;;;;;;;;;5076090;28;20435;-80
2023/12/17 07:42:34;;;;;;;13.50;11.30;;;;;;;;;;5075057;28;20537;-82
2023/12/17 07:45:01;;;;;;;22.30;12.60;;;;;;;;;;5076023;28;20541;-80
2023/12/17 07:47:32;;;;;;;15.33;10.43;;;;;;;;;;5075398;28;21019;-80
2023/12/17 07:50:00;;;;;;;15.97;11.40;;;;;;;;;;5075510;28;20447;-82
2023/12/17 07:52:27;;;;;;;13.20;11.13;;;;;;;;;;5075377;28;20442;-81
2023/12/17 07:54:53;;;;;;;18.07;11.53;;;;;;;;;;5075975;28;20471;-82
2023/12/17 07:57:21;;;;;;;15.83;11.30;;;;;;;;;;5074996;28;20459;-82
2023/12/17 07:59:48;;;;;;;19.10;13.17;;;;;;;;;;5073941;28;20446;-83
2023/12/17 08:02:15;;;;;;;16.80;12.20;;;;;;;;;;5074964;28;20975;-83
2023/12/17 08:04:42;;;;;;;13.67;10.97;;;;;;;;;;5075573;28;20455;-83
2023/12/17 08:07:10;;;;;;;17.60;12.63;;;;;;;;;;5075080;28;21012;-83
2023/12/17 08:09:37;;;;;;;19.67;12.93;;;;;;;;;;5074743;28;20519;-80
2023/12/17 08:12:05;;;;;;;19.03;14.00;;;;;;;;;;5075313;28;20526;-80
2023/12/17 08:14:34;;;;;;;15.63;13.03;;;;;;;;;;5074774;28;20879;-80
2023/12/17 08:17:00;;;;;;;15.53;13.30;;;;;;;;;;5076016;28;20533;-83
2023/12/17 08:19:27;;;;;;;16.60;12.40;;;;;;;;;;5074728;28;20473;-80
2023/12/17 08:21:55;;;;;;;15.10;12.80;;;;;;;;;;5075054;28;20543;-80
2023/12/17 08:24:22;;;;;;;15.17;11.87;;;;;;;;;;5074493;28;20553;-81
2023/12/17 08:26:49;;;;;;;19.53;14.23;;;;;;;;;;5074694;28;20951;-80
2023/12/17 08:29:17;;;;;;;18.87;12.33;;;;;;;;;;5073981;28;20471;-82
2023/12/17 08:31:44;;;;;;;18.23;13.80;;;;;;;;;;5074843;28;20789;-80
2023/12/17 08:34:11;;;;;;;16.33;12.67;;;;;;;;;;5073976;28;20994;-81
2023/12/17 08:36:37;;;;;;;23.17;12.53;;;;;;;;;;5074534;28;20439;-80
2023/12/17 08:39:05;;;;;;;17.23;13.53;;;;;;;;;;5073686;28;20555;-80
2023/12/17 08:41:33;;;;;;;19.90;14.73;;;;;;;;;;5073179;28;20435;-81
2023/12/17 08:43:59;;;;;;;20.20;13.70;;;;;;;;;;5073216;28;20481;-82
2023/12/17 08:46:26;;;;;;;14.43;11.70;;;;;;;;;;5076930;28;21012;-81
2023/12/17 08:48:53;;;;;;;21.20;12.47;;;;;;;;;;5074068;28;20471;-82
2023/12/17 08:51:19;;;;;;;16.20;11.80;;;;;;;;;;5074174;28;20442;-83
2023/12/17 08:53:46;;;;;;;15.40;13.90;;;;;;;;;;5073219;28;20470;-82
2023/12/17 08:56:14;;;;;;;15.57;13.43;;;;;;;;;;5074046;28;20903;-80
2023/12/17 08:58:44;;;;;;;18.07;14.30;;;;;;;;;;5073763;28;20467;-83
2023/12/17 09:01:11;;;;;;;18.60;12.87;;;;;;;;;;5073934;28;20445;-82
2023/12/17 09:03:37;;;;;;;16.57;14.60;;;;;;;;;;5073381;28;20467;-83
2023/12/17 09:06:04;;;;;;;22.53;14.50;;;;;;;;;;5075063;28;20840;-82
2023/12/17 09:08:30;;;;;;;18.37;14.50;;;;;;;;;;5072830;28;20475;-81
2023/12/17 09:10:57;;;;;;;16.23;13.20;;;;;;;;;;5073792;28;20477;-82
2023/12/17 09:13:23;;;;;;;16.13;13.07;;;;;;;;;;5073086;28;20471;-81
2023/12/17 09:15:51;;;;;;;18.57;13.73;;;;;;;;;;5073714;28;20459;-80
2023/12/17 09:18:18;;;;;;;20.47;14.10;;;;;;;;;;5074436;28;20478;-83
2023/12/17 09:20:44;;;;;;;17.10;14.13;;;;;;;;;;5074352;28;20791;-83
2023/12/17 09:23:11;;;;;;;16.20;14.20;;;;;;;;;;5072463;28;20853;-82
2023/12/17 09:25:37;;;;;;;16.23;14.33;;;;;;;;;;5073624;28;20546;-80
2023/12/17 09:28:04;;;;;;;21.80;14.07;;;;;;;;;;5074013;28;20554;-80
2023/12/17 09:30:31;;;;;;;16.40;12.27;;;;;;;;;;5074927;28;20534;-80
2023/12/17 09:32:59;;;;;;;13.87;11.40;;;;;;;;;;5073729;28;20828;-80
2023/12/17 09:35:25;;;;;;;20.93;12.90;;;;;;;;;;5074257;28;20793;-80
2023/12/17 09:37:52;;;;;;;16.63;12.40;;;;;;;;;;5072722;28;20980;-80
2023/12/17 09:40:18;;;;;;;17.70;12.10;;;;;;;;;;5074101;28;20474;-81
2023/12/17 09:42:48;;;;;;;19.57;13.07;;;;;;;;;;5073895;28;21034;-81
2023/12/17 09:45:15;;;;;;;20.60;12.23;;;;;;;;;;5073391;28;20458;-81
2023/12/17 09:47:42;;;;;;;15.40;10.60;;;;;;;;;;5072914;28;20476;-83
2023/12/17 09:50:11;;;;;;;19.97;10.23;;;;;;;;;;5073527;28;20441;-82
2023/12/17 09:52:42;;;;;;;14.10;9.57;;;;;;;;;;5073184;28;20451;-80
2023/12/17 09:55:10;;;;;;;19.00;10.00;;;;;;;;;;5073565;28;20459;-80
2023/12/17 09:57:37;;;;;;;14.17;9.70;;;;;;;;;;5073072;28;20811;-80
2023/12/17 10:00:04;;;;;;;14.03;8.67;;;;;;;;;;5074537;28;20525;-80
2023/12/17 10:02:32;;;;;;;13.27;9.23;;;;;;;;;;5074592;28;20439;-80
2023/12/17 10:04:58;;;;;;;12.37;8.73;;;;;;;;;;5075462;28;20538;-80
2023/12/17 10:07:26;;;;;;;13.80;10.60;;;;;;;;;;5074580;28;20439;-79
2023/12/17 10:09:53;;;;;;;13.70;10.33;;;;;;;;;;5072915;28;20486;-80
2023/12/17 10:12:20;;;;;;;19.93;10.40;;;;;;;;;;5074032;28;20784;-80
2023/12/17 10:14:49;;;;;;;14.67;10.47;;;;;;;;;;5076929;28;20463;-80
2023/12/17 10:17:18;;;;;;;14.33;8.37;;;;;;;;;;5076995;28;20459;-82
2023/12/17 10:19:49;;;;;;;11.23;7.10;;;;;;;;;;5077481;28;20454;-82
2023/12/17 10:22:17;;;;;;;11.30;7.17;;;;;;;;;;5075444;28;20776;-82
2023/12/17 10:24:45;;;;;;;21.43;12.77;;;;;;;;;;5077460;28;20465;-83
2023/12/17 10:27:16;;;;;;;12.93;10.33;;;;;;;;;;5075744;28;20442;-80
2023/12/17 10:29:44;;;;;;;22.93;12.00;;;;;;;;;;5077809;28;20468;-82
2023/12/17 10:32:11;;;;;;;30.63;19.43;;;;;;;;;;5076932;28;20438;-82
2023/12/17 10:34:39;;;;;;;25.60;14.20;;;;;;;;;;5076571;28;20550;-82
2023/12/17 10:37:05;;;;;;;18.40;10.90;;;;;;;;;;5076960;28;20441;-82
2023/12/17 10:39:32;;;;;;;17.77;10.67;;;;;;;;;;5076361;28;20473;-82
2023/12/17 10:42:01;;;;;;;39.90;22.53;;;;;;;;;;5076548;28;20441;-80
2023/12/17 10:44:28;;;;;;;29.13;16.80;;;;;;;;;;5076633;28;20554;-81
2023/12/17 10:46:54;;;;;;;25.73;13.80;;;;;;;;;;5078271;28;20512;-80
2023/12/17 10:49:21;;;;;;;98.03;48.03;;;;;;;;;;5075930;28;20453;-80
2023/12/17 10:51:49;;;;;;;58.97;28.40;;;;;;;;;;5076343;28;20496;-79
2023/12/17 10:54:15;;;;;;;64.17;35.20;;;;;;;;;;5075853;28;20556;-82
2023/12/17 10:56:43;;;;;;;25.43;15.10;;;;;;;;;;5076249;28;20526;-80
2023/12/17 10:59:12;;;;;;;22.10;14.50;;;;;;;;;;5075456;28;20470;-80
2023/12/17 11:01:41;;;;;;;20.77;11.90;;;;;;;;;;5076912;28;20446;-79
2023/12/17 11:04:07;;;;;;;19.33;13.97;;;;;;;;;;5075668;28;20479;-82
2023/12/17 11:06:34;;;;;;;28.30;17.67;;;;;;;;;;5076346;28;20439;-80
2023/12/17 11:09:00;;;;;;;27.07;16.20;;;;;;;;;;5075983;28;21074;-80
2023/12/17 11:11:31;;;;;;;26.80;16.50;;;;;;;;;;5076437;28;20431;-80
2023/12/17 11:13:57;;;;;;;27.37;16.63;;;;;;;;;;5075995;28;20479;-82
2023/12/17 11:16:25;;;;;;;26.17;16.53;;;;;;;;;;5074677;28;20817;-80
2023/12/17 11:18:54;;;;;;;28.70;16.67;;;;;;;;;;5075842;28;20524;-80
2023/12/17 11:21:21;;;;;;;26.50;18.17;;;;;;;;;;5076372;28;20542;-80
2023/12/17 11:23:48;;;;;;;27.17;17.97;;;;;;;;;;5074741;28;20489;-80
2023/12/17 11:26:16;;;;;;;26.47;18.10;;;;;;;;;;5075694;28;20442;-80
2023/12/17 11:28:44;;;;;;;28.40;19.30;;;;;;;;;;5075123;28;20489;-80
2023/12/17 11:31:12;;;;;;;27.50;19.20;;;;;;;;;;5075873;28;20445;-80
2023/12/17 11:33:42;;;;;;;33.47;20.17;;;;;;;;;;5075252;28;20557;-81
2023/12/17 11:36:11;;;;;;;30.80;19.77;;;;;;;;;;5041109;28;20479;-82
2023/12/17 11:38:39;;;;;;;30.30;18.33;;;;;;;;;;5035431;28;20551;-80
2023/12/17 11:41:06;;;;;;;30.57;21.10;;;;;;;;;;5036139;28;20444;-79
2023/12/17 11:43:33;;;;;;;42.60;22.70;;;;;;;;;;5034035;28;20469;-80
2023/12/17 11:45:59;;;;;;;29.00;18.60;;;;;;;;;;5035420;28;20835;-82
2023/12/17 11:48:26;;;;;;;31.40;18.73;;;;;;;;;;5034795;28;20477;-82
2023/12/17 11:50:56;;;;;;;30.60;18.93;;;;;;;;;;5034201;28;20987;-79
2023/12/17 11:53:23;;;;;;;30.63;18.23;;;;;;;;;;5033827;28;20505;-80
2023/12/17 11:55:50;;;;;;;30.23;18.17;;;;;;;;;;5035247;28;20464;-81
2023/12/17 11:58:19;;;;;;;30.73;19.17;;;;;;;;;;5034898;28;20465;-81
2023/12/17 12:01:00;;;;;;;31.73;19.30;;;;;;;;;;5035109;28;20437;-81
2023/12/17 12:03:27;;;;;;;31.53;18.03;;;;;;;;;;5034678;28;20475;-82
2023/12/17 12:05:57;;;;;;;30.07;17.07;;;;;;;;;;5034829;28;20983;-81
2023/12/17 12:08:23;;;;;;;31.43;18.60;;;;;;;;;;5034244;28;20479;-81
2023/12/17 12:10:52;;;;;;;24.67;16.80;;;;;;;;;;5034999;28;20436;-81
2023/12/17 12:13:19;;;;;;;25.20;16.50;;;;;;;;;;5034552;28;20469;-81
2023/12/17 12:15:45;;;;;;;24.33;15.67;;;;;;;;;;5034976;28;20464;-81
2023/12/17 12:18:19;;;;;;;28.17;17.60;;;;;;;;;;5034269;28;20564;-82
2023/12/17 12:20:47;;;;;;;25.33;17.13;;;;;;;;;;5034798;28;20425;-81
2023/12/17 12:23:15;;;;;;;28.27;17.93;;;;;;;;;;5034550;28;20476;-82
2023/12/17 12:25:42;;;;;;;26.53;17.87;;;;;;;;;;5034846;28;20452;-81
2023/12/17 12:28:15;;;;;;;28.17;17.77;;;;;;;;;;5034163;28;20477;-82
2023/12/17 12:30:43;;;;;;;29.67;18.67;;;;;;;;;;5034273;28;20555;-81
2023/12/17 12:33:11;;;;;;;27.73;16.90;;;;;;;;;;5034175;28;20464;-82
2023/12/17 12:35:38;;;;;;;33.00;18.60;;;;;;;;;;5033950;28;20460;-82
2023/12/17 12:38:18;;;;;;;25.60;17.47;;;;;;;;;;5033522;28;20841;-82
2023/12/17 12:40:44;;;;;;;53.60;30.10;;;;;;;;;;5034359;28;20413;-81
2023/12/17 12:43:11;;;;;;;57.03;30.60;;;;;;;;;;5032544;28;20461;-82
2023/12/17 12:45:41;;;;;;;63.37;34.90;;;;;;;;;;5034150;28;20469;-81
2023/12/17 12:48:15;;;;;;;32.27;20.63;;;;;;;;;;5034008;28;20468;-80
2023/12/17 12:50:42;;;;;;;25.87;17.13;;;;;;;;;;5034569;28;20574;-79
2023/12/17 12:53:08;;;;;;;32.40;18.57;;;;;;;;;;5034390;28;20476;-79
2023/12/17 12:55:38;;;;;;;32.47;20.77;;;;;;;;;;5034188;28;20474;-80
2023/12/17 12:58:04;;;;;;;28.17;20.30;;;;;;;;;;5033672;28;20468;-80
2023/12/17 13:00:31;;;;;;;32.93;19.00;;;;;;;;;;5034431;28;20556;-80
2023/12/17 13:02:57;;;;;;;32.53;18.83;;;;;;;;;;5035013;28;20470;-80
2023/12/17 13:05:24;;;;;;;32.43;18.30;;;;;;;;;;5035386;28;20461;-80
2023/12/17 13:07:52;;;;;;;33.23;21.70;;;;;;;;;;5035086;28;20479;-82
2023/12/17 13:10:18;;;;;;;37.20;21.60;;;;;;;;;;5034616;28;21015;-82
2023/12/17 13:12:46;;;;;;;33.67;21.17;;;;;;;;;;5034321;28;20472;-81
2023/12/17 13:15:13;;;;;;;31.13;19.17;;;;;;;;;;5034904;28;20463;-82
2023/12/17 13:17:42;;;;;;;35.50;20.17;;;;;;;;;;5034012;28;20469;-81
2023/12/17 13:20:09;;;;;;;32.97;19.17;;;;;;;;;;5034114;28;20435;-82
2023/12/17 13:22:35;;;;;;;30.47;17.40;;;;;;;;;;5033384;28;20980;-81
2023/12/17 13:25:02;;;;;;;30.57;19.60;;;;;;;;;;5034091;28;20468;-82
2023/12/17 13:27:30;;;;;;;32.10;18.47;;;;;;;;;;5033681;28;20498;-81
2023/12/17 13:29:58;;;;;;;27.93;16.70;;;;;;;;;;5034175;28;20459;-81
2023/12/17 13:32:24;;;;;;;31.80;18.40;;;;;;;;;;5034256;28;20858;-80
2023/12/17 13:34:51;;;;;;;33.70;18.80;;;;;;;;;;5034684;28;20543;-79
2023/12/17 13:37:18;;;;;;;31.43;18.60;;;;;;;;;;5034071;28;20461;-80
2023/12/17 13:39:45;;;;;;;31.43;17.30;;;;;;;;;;5034479;28;20418;-80
2023/12/17 13:42:11;;;;;;;28.53;16.60;;;;;;;;;;5034311;28;20411;-80
2023/12/17 13:44:38;;;;;;;27.00;16.60;;;;;;;;;;5032793;28;21000;-80
2023/12/17 13:47:06;;;;;;;29.60;17.53;;;;;;;;;;5033091;28;20441;-80
2023/12/17 13:49:35;;;;;;;29.47;17.63;;;;;;;;;;5037299;28;20534;-81
2023/12/17 13:52:02;;;;;;;31.43;19.40;;;;;;;;;;5038172;28;20483;-81
2023/12/17 13:54:28;;;;;;;29.40;16.80;;;;;;;;;;5035884;28;20489;-81
2023/12/17 13:56:55;;;;;;;28.10;16.40;;;;;;;;;;5037813;28;20459;-80
2023/12/17 13:59:22;;;;;;;26.17;16.33;;;;;;;;;;5037836;28;20501;-82
2023/12/17 14:01:49;;;;;;;21.93;13.83;;;;;;;;;;5037592;28;20445;-80
2023/12/17 14:04:18;;;;;;;23.20;13.17;;;;;;;;;;5036395;28;20483;-82
2023/12/17 14:06:45;;;;;;;21.57;12.90;;;;;;;;;;5038032;28;20527;-80
2023/12/17 14:09:11;;;;;;;23.23;13.97;;;;;;;;;;5037200;28;20483;-80
2023/12/17 14:11:40;;;;;;;20.90;13.30;;;;;;;;;;5037727;28;20457;-80
2023/12/17 14:14:07;;;;;;;19.57;12.00;;;;;;;;;;5036152;28;20998;-81
2023/12/17 14:16:34;;;;;;;18.77;11.50;;;;;;;;;;5038656;28;20946;-80
2023/12/17 14:19:00;;;;;;;23.03;14.27;;;;;;;;;;5037089;28;20495;-82
2023/12/17 14:21:29;;;;;;;17.77;12.40;;;;;;;;;;5036734;28;20444;-80